Time;durP1;ratioP1;P1;durP2;ratioP2;P2;SDS_P1;SDS_P2;PMS_P1;PMS_P2;Temp;Humidity;BMP_temperature;BMP_pressure;BME280_temperature;BME280_humidity;BME280_pressure;Samples;Min_cycle;Max_cycle;Signal;HPM_P1;HPM_P2
2023/03/26 00:01:26;;;;;;;0.73;0.35;;;;;;;9.62;92.24;62992.84;5089379;28;20239;-76
2023/03/26 00:03:56;;;;;;;0.40;0.40;;;;;;;9.68;93.00;62996.50;5088369;28;20220;-76
2023/03/26 00:06:26;;;;;;;0.30;0.30;;;;;;;9.58;93.77;62988.19;5086045;28;20258;-73
2023/03/26 00:08:57;;;;;;;0.45;0.45;;;;;;;9.53;94.69;62983.53;5087390;28;20208;-77
2023/03/26 00:11:26;;;;;;;0.40;0.40;;;;;;;9.47;95.28;62976.81;5087989;28;20236;-75
2023/03/26 00:13:55;;;;;;;0.30;0.30;;;;;;;9.34;96.28;62959.31;5085401;28;20193;-77
2023/03/26 00:16:23;;;;;;;0.20;0.20;;;;;;;9.35;97.06;62959.84;5074211;28;20533;-75
2023/03/26 00:18:52;;;;;;;1.33;0.50;;;;;;;9.23;98.32;62950.50;5073868;28;20190;-76
2023/03/26 00:21:26;;;;;;;0.35;0.35;;;;;;;9.15;99.84;62937.16;5068888;28;20197;-77
2023/03/26 00:23:55;;;;;;;0.20;0.20;;;;;;;9.02;100.00;62928.81;5066670;28;20197;-74
2023/03/26 00:26:22;;;;;;;0.40;0.40;;;;;;;8.93;100.00;62919.50;5081343;28;20214;-76
2023/03/26 00:28:50;;;;;;;0.28;0.28;;;;;;;9.00;100.00;62926.72;5086675;28;20227;-75
2023/03/26 00:31:17;;;;;;;1.00;0.30;;;;;;;9.01;100.00;62927.22;5085498;28;20232;-74
2023/03/26 00:33:44;;;;;;;0.35;0.35;;;;;;;9.04;100.00;62933.38;5079382;28;20193;-76
2023/03/26 00:36:15;;;;;;;0.50;0.50;;;;;;;9.04;100.00;62933.38;5069971;28;20198;-75
2023/03/26 00:38:43;;;;;;;0.47;0.47;;;;;;;9.09;100.00;62938.56;5069869;28;20243;-75
2023/03/26 00:41:21;;;;;;;0.50;0.50;;;;;;;9.11;100.00;62945.72;5069716;28;20371;-76
2023/03/26 00:43:50;;;;;;;0.75;0.60;;;;;;;9.08;100.00;62934.47;5085461;28;20260;-76
2023/03/26 00:46:18;;;;;;;0.40;0.40;;;;;;;9.05;100.00;62933.91;5086514;28;20278;-76
2023/03/26 00:48:45;;;;;;;0.50;0.50;;;;;;;9.01;100.00;62927.75;5085309;28;20200;-76
2023/03/26 00:51:15;;;;;;;0.35;0.35;;;;;;;9.04;100.00;62933.38;5083422;28;20228;-76
2023/03/26 00:53:42;;;;;;;0.52;0.52;;;;;;;9.04;100.00;62933.38;5065926;28;20210;-75
2023/03/26 00:56:11;;;;;;;0.45;0.45;;;;;;;9.05;100.00;62933.91;5069084;28;20437;-76
2023/03/26 00:58:38;;;;;;;0.57;0.57;;;;;;;8.99;100.00;62930.25;5077868;28;20246;-75
2023/03/26 01:01:08;;;;;;;0.82;0.80;;;;;;;8.92;100.00;62918.44;5074421;28;20204;-75
2023/03/26 01:03:37;;;;;;;0.60;0.60;;;;;;;8.87;100.00;62913.28;5067738;28;20198;-76
2023/03/26 01:06:06;;;;;;;0.70;0.70;;;;;;;8.92;100.00;62917.94;5066522;28;20228;-76
2023/03/26 01:08:37;;;;;;;0.40;0.40;;;;;;;8.92;100.00;62921.00;5065664;28;20204;-76
2023/03/26 01:11:12;;;;;;;0.88;0.88;;;;;;;8.87;100.00;62918.34;5071649;28;20258;-76
2023/03/26 01:13:46;;;;;;;0.30;0.30;;;;;;;8.79;100.00;62904.50;5088711;28;20200;-76
2023/03/26 01:16:20;;;;;;;0.50;0.50;;;;;;;8.77;100.00;62902.44;5084887;28;20191;-76
2023/03/26 01:18:47;;;;;;;0.73;0.73;;;;;;;8.74;100.00;62899.34;5083853;28;20392;-74
2023/03/26 01:21:22;;;;;;;0.80;0.80;;;;;;;8.75;100.00;62900.38;5067690;28;20197;-75
2023/03/26 01:23:59;;;;;;;0.68;0.68;;;;;;;8.77;100.00;62902.44;5085294;28;20195;-77
2023/03/26 01:26:48;;;;;;;0.75;0.52;;;;;;;8.73;100.00;62903.88;5084124;28;20216;-76
2023/03/26 01:29:22;;;;;;;0.70;0.70;;;;;;;8.78;100.00;62903.47;5084929;28;20242;-77
2023/03/26 01:31:58;;;;;;;0.77;0.77;;;;;;;8.74;100.00;62899.84;5069048;28;20321;-76
2023/03/26 01:34:32;;;;;;;0.63;0.63;;;;;;;8.71;100.00;62896.25;5065613;28;20211;-76
2023/03/26 01:37:11;;;;;;;0.50;0.50;;;;;;;8.63;100.00;62888.47;5064465;28;20280;-76
2023/03/26 01:39:48;;;;;;;0.55;0.55;;;;;;;8.70;100.00;62892.66;5068107;28;20197;-76
2023/03/26 01:42:20;;;;;;;0.60;0.60;;;;;;;8.68;100.00;62895.69;5082911;28;20244;-75
2023/03/26 01:44:52;;;;;;;0.90;0.60;;;;;;;8.70;100.00;62892.66;5084049;28;20247;-76
2023/03/26 01:47:21;;;;;;;0.50;0.50;;;;;;;8.69;100.00;62902.31;5077023;28;20253;-75
2023/03/26 01:49:48;;;;;;;0.52;0.52;;;;;;;8.74;100.00;62894.25;5065505;28;20205;-74
2023/03/26 01:52:18;;;;;;;0.60;0.60;;;;;;;8.75;100.00;62903.41;5063811;28;20233;-76
2023/03/26 01:54:47;;;;;;;0.70;0.70;;;;;;;8.77;100.00;62905.50;5064468;28;20384;-76
2023/03/26 01:57:25;;;;;;;0.65;0.65;;;;;;;8.79;100.00;62904.50;5066112;28;20301;-76
2023/03/26 02:00:11;;;;;;;0.90;0.70;;;;;;;8.81;100.00;62907.09;5084523;28;20358;-76
2023/03/26 02:02:57;;;;;;;0.60;0.60;;;;;;;8.81;100.00;62907.09;5085141;28;20236;-76
2023/03/26 02:05:29;;;;;;;0.70;0.70;;;;;;;8.87;100.00;62915.81;5085628;28;20185;-76
2023/03/26 02:08:03;;;;;;;0.82;0.82;;;;;;;8.70;100.00;62897.72;5084139;28;20216;-76
2023/03/26 02:10:34;;;;;;;0.80;0.80;;;;;;;8.69;100.00;62892.16;5085059;28;20271;-75
2023/03/26 02:13:01;;;;;;;1.13;1.05;;;;;;;8.78;100.00;62903.47;5083790;28;20427;-76
2023/03/26 02:15:28;;;;;;;0.75;0.75;;;;;;;8.81;100.00;62904.03;5085134;28;20208;-76
2023/03/26 02:17:55;;;;;;;0.70;0.70;;;;;;;8.80;100.00;62903.00;5085097;28;20230;-75
2023/03/26 02:20:24;;;;;;;0.85;0.85;;;;;;;8.74;100.00;62897.31;5084861;28;20196;-77
2023/03/26 02:22:51;;;;;;;0.95;0.95;;;;;;;8.64;100.00;62887.00;5086569;28;20227;-76
2023/03/26 02:25:20;;;;;;;2.95;1.15;;;;;;;8.54;100.00;62878.69;5085784;28;20224;-76
2023/03/26 02:27:50;;;;;;;1.27;1.20;;;;;;;8.44;100.00;62870.88;5085106;28;20588;-76
2023/03/26 02:30:20;;;;;;;1.00;1.00;;;;;;;8.35;100.00;62861.59;5086702;28;20227;-76
2023/03/26 02:32:50;;;;;;;1.20;1.20;;;;;;;8.33;100.00;62859.50;5089047;28;20231;-75
2023/03/26 02:35:18;;;;;;;1.10;1.10;;;;;;;8.31;100.00;62855.44;5087792;28;20205;-76
2023/03/26 02:37:45;;;;;;;1.55;1.55;;;;;;;8.33;100.00;62860.03;5091075;28;20216;-76
2023/03/26 02:40:13;;;;;;;1.10;1.10;;;;;;;8.43;100.00;62872.91;5087650;28;20207;-77
2023/03/26 02:42:40;;;;;;;1.38;1.38;;;;;;;8.47;100.00;62871.97;5089343;28;20216;-75
2023/03/26 02:45:08;;;;;;;1.40;1.30;;;;;;;8.61;100.00;62883.88;5087331;28;20477;-77
2023/03/26 02:47:36;;;;;;;1.20;1.20;;;;;;;8.63;100.00;62888.47;5088927;28;20224;-76
2023/03/26 02:50:03;;;;;;;1.67;1.58;;;;;;;8.69;100.00;62892.16;5088824;28;20480;-77
2023/03/26 02:52:30;;;;;;;1.02;1.02;;;;;;;8.73;100.00;62900.84;5087978;28;20239;-76
2023/03/26 02:54:57;;;;;;;1.63;1.15;;;;;;;8.86;100.00;62912.25;5090592;28;20211;-76
2023/03/26 02:57:24;;;;;;;1.13;1.13;;;;;;;8.84;100.00;62912.72;5089060;28;20228;-75
2023/03/26 02:59:52;;;;;;;1.00;1.00;;;;;;;8.79;100.00;62907.56;5087561;28;20208;-77
2023/03/26 03:02:23;;;;;;;1.05;1.05;;;;;;;8.71;100.00;62899.31;5089024;28;20263;-76
2023/03/26 03:04:50;;;;;;;1.50;1.40;;;;;;;8.66;100.00;62893.63;5090499;28;20204;-75
2023/03/26 03:07:19;;;;;;;1.17;1.17;;;;;;;8.63;100.00;62887.97;5089262;28;20541;-77
2023/03/26 03:09:45;;;;;;;1.10;1.10;;;;;;;8.60;100.00;62882.84;5086693;28;20224;-75
2023/03/26 03:12:12;;;;;;;1.15;1.15;;;;;;;8.64;100.00;62889.53;5087637;28;20240;-76
2023/03/26 03:14:39;;;;;;;1.33;1.33;;;;;;;8.65;100.00;62890.03;5087199;28;20204;-76
2023/03/26 03:17:06;;;;;;;1.13;1.13;;;;;;;8.71;100.00;62896.75;5089267;28;20272;-75
2023/03/26 03:19:36;;;;;;;1.27;1.20;;;;;;;8.73;100.00;62898.31;5091194;28;20207;-77
2023/03/26 03:22:04;;;;;;;1.17;1.17;;;;;;;8.67;100.00;62894.63;5088640;28;20220;-77
2023/03/26 03:24:32;;;;;;;1.63;1.63;;;;;;;8.59;100.00;62881.81;5087925;28;20200;-77
2023/03/26 03:27:00;;;;;;;1.58;1.50;;;;;;;8.46;100.00;62870.91;5086488;28;20240;-76
2023/03/26 03:29:28;;;;;;;1.70;1.60;;;;;;;8.36;100.00;62865.66;5088418;28;20216;-76
2023/03/26 03:31:54;;;;;;;2.17;2.08;;;;;;;8.32;100.00;62853.41;5086499;28;20470;-77
2023/03/26 03:34:22;;;;;;;2.63;2.53;;;;;;;8.23;100.00;62846.63;5088473;28;20263;-75
2023/03/26 03:36:50;;;;;;;2.78;2.67;;;;;;;8.15;100.00;62841.41;5095304;28;20197;-74
2023/03/26 03:39:18;;;;;;;2.53;2.40;;;;;;;8.03;100.00;62821.94;5088563;28;20196;-76
2023/03/26 03:41:44;;;;;;;2.53;2.40;;;;;;;8.02;100.00;62828.00;5086133;28;20263;-76
2023/03/26 03:44:11;;;;;;;2.95;2.75;;;;;;;8.04;100.00;62828.03;5088802;28;20208;-77
2023/03/26 03:46:39;;;;;;;2.97;2.78;;;;;;;8.04;100.00;62830.56;5086028;28;20216;-76
2023/03/26 03:49:06;;;;;;;2.60;2.47;;;;;;;8.05;100.00;62826.03;5087301;28;20238;-75
2023/03/26 03:51:34;;;;;;;2.28;2.17;;;;;;;8.03;100.00;62827.00;5089498;28;20232;-75
2023/03/26 03:54:02;;;;;;;2.95;2.75;;;;;;;7.97;100.00;62823.34;5090068;28;20234;-74
2023/03/26 03:56:30;;;;;;;3.80;2.70;;;;;;;7.94;100.00;62814.66;5085869;28;20262;-76
2023/03/26 03:58:58;;;;;;;3.15;2.95;;;;;;;7.84;100.00;62804.34;5086995;28;20223;-75
2023/03/26 04:01:25;;;;;;;2.85;2.65;;;;;;;7.77;100.00;62802.69;5088957;28;20220;-77
2023/03/26 04:03:52;;;;;;;2.55;2.45;;;;;;;7.77;100.00;62802.69;5087260;28;20196;-75
2023/03/26 04:06:19;;;;;;;2.17;2.08;;;;;;;7.73;100.00;62798.56;5087483;28;20197;-76
2023/03/26 04:08:46;;;;;;;2.05;1.95;;;;;;;7.78;100.00;62798.16;5085814;28;20209;-77
2023/03/26 04:11:15;;;;;;;4.50;2.58;;;;;;;7.73;100.00;62790.97;5088422;28;20236;-76
2023/03/26 04:13:42;;;;;;;3.53;3.22;;;;;;;7.75;100.00;62798.09;5085632;28;20194;-77
2023/03/26 04:16:09;;;;;;;2.33;2.13;;;;;;;7.71;100.00;62788.38;5085827;28;20222;-75
2023/03/26 04:18:36;;;;;;;2.17;2.08;;;;;;;7.75;100.00;62798.09;5088361;28;20314;-76
2023/03/26 04:21:04;;;;;;;2.72;2.38;;;;;;;7.73;100.00;62790.97;5087083;28;20197;-74
2023/03/26 04:23:33;;;;;;;2.40;2.30;;;;;;;7.73;100.00;62798.56;5086147;28;20192;-76
2023/03/26 04:26:04;;;;;;;2.38;2.28;;;;;;;7.69;100.00;62793.91;5086298;28;20212;-75
2023/03/26 04:28:40;;;;;;;2.90;2.72;;;;;;;7.75;100.00;62795.03;5088562;28;20290;-77
2023/03/26 04:31:12;;;;;;;2.65;2.50;;;;;;;7.76;100.00;62798.63;5085056;28;20200;-76
2023/03/26 04:33:39;;;;;;;3.40;3.10;;;;;;;7.78;100.00;62803.22;5085966;28;20200;-76
2023/03/26 04:36:07;;;;;;;2.95;2.75;;;;;;;7.82;100.00;62807.34;5086191;28;20494;-75
2023/03/26 04:38:40;;;;;;;2.42;2.33;;;;;;;7.76;100.00;62798.63;5087428;28;20322;-76
2023/03/26 04:41:07;;;;;;;3.13;2.80;;;;;;;7.70;100.00;62794.94;5085132;28;20201;-76
2023/03/26 04:43:36;;;;;;;2.85;2.30;;;;;;;7.64;100.00;62783.69;5085480;28;20197;-75
2023/03/26 04:46:03;;;;;;;2.92;2.78;;;;;;;7.64;100.00;62781.69;5085981;28;20193;-75
2023/03/26 04:48:30;;;;;;;3.03;2.83;;;;;;;7.72;100.00;62791.94;5086190;28;20231;-75
2023/03/26 04:50:58;;;;;;;3.28;3.08;;;;;;;7.71;100.00;62793.47;5085448;28;20197;-75
2023/03/26 04:53:25;;;;;;;2.47;2.38;;;;;;;7.71;100.00;62790.91;5086131;28;20225;-75
2023/03/26 04:55:57;;;;;;;2.83;2.65;;;;;;;7.68;100.00;62790.88;5088442;28;20397;-77
2023/03/26 04:58:29;;;;;;;3.20;3.00;;;;;;;7.71;100.00;62796.50;5085520;28;20221;-75
2023/03/26 05:00:59;;;;;;;2.75;2.65;;;;;;;7.73;100.00;62796.03;5085459;28;20189;-75
2023/03/26 05:03:29;;;;;;;3.60;3.35;;;;;;;7.80;100.00;62805.78;5087025;28;20216;-73
2023/03/26 05:05:56;;;;;;;3.38;3.17;;;;;;;7.81;100.00;62806.31;5086701;28;20207;-75
2023/03/26 05:08:24;;;;;;;3.50;3.30;;;;;;;7.80;100.00;62802.75;5086965;28;20232;-76
2023/03/26 05:10:51;;;;;;;4.70;4.28;;;;;;;7.82;100.00;62805.31;5086800;28;20197;-77
2023/03/26 05:13:18;;;;;;;4.63;4.32;;;;;;;7.88;100.00;62811.00;5084617;28;20244;-76
2023/03/26 05:15:45;;;;;;;5.03;4.53;;;;;;;8.01;98.89;62824.41;5085090;28;20544;-75
2023/03/26 05:18:13;;;;;;;3.55;3.38;;;;;;;8.17;96.93;62844.00;5085396;28;20224;-73
2023/03/26 05:20:40;;;;;;;4.55;4.25;;;;;;;8.28;95.22;62851.81;5086660;28;20200;-74
2023/03/26 05:23:07;;;;;;;5.05;4.25;;;;;;;8.39;94.30;62858.63;5086353;28;20265;-76
2023/03/26 05:25:34;;;;;;;7.20;4.72;;;;;;;8.48;93.21;62872.47;5085620;28;20207;-76
2023/03/26 05:28:02;;;;;;;7.07;4.13;;;;;;;8.51;92.41;62875.59;5088174;28;20241;-77
2023/03/26 05:30:28;;;;;;;4.20;3.45;;;;;;;8.66;91.28;62891.56;5066116;28;20197;-77
2023/03/26 05:32:55;;;;;;;4.50;4.10;;;;;;;8.69;91.17;62896.72;5064375;28;20236;-75
2023/03/26 05:35:23;;;;;;;3.65;3.35;;;;;;;8.79;89.93;62904.50;5065636;28;20193;-76
2023/03/26 05:37:50;;;;;;;4.22;3.83;;;;;;;8.82;90.82;62908.13;5065452;28;20224;-76
2023/03/26 05:40:17;;;;;;;4.43;4.13;;;;;;;8.90;90.32;62915.88;5066195;28;20397;-76
2023/03/26 05:42:45;;;;;;;4.18;3.88;;;;;;;8.94;89.83;62922.53;5064388;28;20218;-76
2023/03/26 05:45:14;;;;;;;4.50;4.13;;;;;;;8.98;89.27;62924.66;5065627;28;20536;-77
2023/03/26 05:47:41;;;;;;;4.20;3.90;;;;;;;9.04;89.40;62933.38;5063949;28;20276;-76
2023/03/26 05:50:09;;;;;;;4.70;4.20;;;;;;;8.97;89.56;62923.63;5064550;28;20236;-76
2023/03/26 05:52:38;;;;;;;4.15;3.85;;;;;;;8.93;90.11;62921.50;5063904;28;20552;-76
2023/03/26 05:55:06;;;;;;;4.60;4.25;;;;;;;8.91;89.08;62917.44;5064813;28;20239;-75
2023/03/26 05:57:34;;;;;;;5.20;4.72;;;;;;;8.91;88.93;62914.38;5071640;28;20213;-76
2023/03/26 06:00:02;;;;;;;5.03;4.05;;;;;;;9.06;87.42;62934.97;5084830;28;20202;-76
2023/03/26 06:02:29;;;;;;;3.20;3.00;;;;;;;8.95;88.98;62918.50;5085602;28;20225;-78
2023/03/26 06:04:56;;;;;;;4.63;4.32;;;;;;;9.01;90.45;62922.16;5085596;28;20196;-77
2023/03/26 06:07:23;;;;;;;5.03;4.50;;;;;;;9.14;90.46;62941.19;5084740;28;20224;-76
2023/03/26 06:09:52;;;;;;;4.85;4.47;;;;;;;9.26;86.13;62953.09;5085939;28;20439;-76
2023/03/26 06:12:18;;;;;;;4.40;4.07;;;;;;;9.07;86.30;62936.50;5085821;28;20239;-75
2023/03/26 06:14:46;;;;;;;8.85;4.93;;;;;;;8.99;88.31;62925.19;5085567;28;20196;-75
2023/03/26 06:17:13;;;;;;;5.28;4.88;;;;;;;9.06;84.77;62932.41;5085699;28;20217;-77
2023/03/26 06:19:41;;;;;;;4.97;4.60;;;;;;;9.12;85.28;62936.06;5087716;28;20196;-76
2023/03/26 06:22:08;;;;;;;4.97;4.60;;;;;;;9.26;85.15;62950.53;5087005;28;20248;-76
2023/03/26 06:24:34;;;;;;;4.38;4.03;;;;;;;9.36;82.26;62963.41;5086519;28;20215;-76
2023/03/26 06:27:03;;;;;;;4.35;4.05;;;;;;;9.33;82.33;62960.84;5064931;28;20217;-74
2023/03/26 06:29:30;;;;;;;5.38;4.97;;;;;;;9.32;83.77;62959.28;5066896;28;20224;-77
2023/03/26 06:31:57;;;;;;;4.80;4.40;;;;;;;9.19;84.95;62948.38;5065151;28;20236;-76
2023/03/26 06:34:25;;;;;;;5.45;4.70;;;;;;;9.18;87.96;62942.28;5066343;28;20197;-77
2023/03/26 06:36:53;;;;;;;5.70;4.95;;;;;;;9.11;89.45;62937.59;5068315;28;20271;-76
2023/03/26 06:39:20;;;;;;;5.20;4.80;;;;;;;9.31;85.28;62956.22;5067552;28;20255;-79
2023/03/26 06:41:47;;;;;;;5.20;4.80;;;;;;;9.37;83.27;62964.44;5064837;28;20217;-76
2023/03/26 06:44:16;;;;;;;4.63;4.32;;;;;;;9.28;84.04;62955.16;5066562;28;20201;-76
2023/03/26 06:46:42;;;;;;;5.28;4.88;;;;;;;9.43;84.63;62973.19;5064523;28;20217;-77
2023/03/26 06:49:09;;;;;;;4.95;2.72;;;;;;;9.38;81.61;62964.97;5064768;28;20205;-74
2023/03/26 06:51:38;;;;;;;5.15;4.65;;;;;;;9.48;81.07;62973.28;5069654;28;20264;-76
2023/03/26 06:54:05;;;;;;;5.22;4.80;;;;;;;9.53;82.68;62983.00;5066404;28;20201;-76
2023/03/26 06:56:33;;;;;;;6.05;4.30;;;;;;;9.60;83.47;62988.22;5064704;28;20263;-75
2023/03/26 06:59:00;;;;;;;3.90;3.60;;;;;;;9.66;81.84;62996.47;5080949;28;20200;-75
2023/03/26 07:01:28;;;;;;;4.30;4.00;;;;;;;9.68;80.55;63001.09;5085649;28;20445;-74
2023/03/26 07:03:55;;;;;;;4.63;4.18;;;;;;;9.54;80.09;62979.50;5084991;28;20524;-75
2023/03/26 07:06:22;;;;;;;3.42;3.22;;;;;;;9.32;80.71;62959.28;5085189;28;20222;-75
2023/03/26 07:08:50;;;;;;;6.97;4.97;;;;;;;9.36;81.74;62960.88;5090004;28;20193;-76
2023/03/26 07:11:19;;;;;;;4.30;3.92;;;;;;;9.45;79.08;62975.28;5085835;28;20201;-75
2023/03/26 07:13:46;;;;;;;7.05;6.07;;;;;;;9.57;80.77;62982.06;5084843;28;20229;-77
2023/03/26 07:16:14;;;;;;;3.78;3.58;;;;;;;9.60;80.68;62988.22;5084921;28;20196;-75
2023/03/26 07:18:42;;;;;;;5.53;5.03;;;;;;;9.72;81.45;63002.66;5089605;28;20193;-75
2023/03/26 07:21:11;;;;;;;3.70;3.40;;;;;;;9.66;80.68;62994.44;5088910;28;20383;-77
2023/03/26 07:23:38;;;;;;;5.57;5.07;;;;;;;9.69;81.15;62999.56;5090217;28;20260;-77
2023/03/26 07:26:20;;;;;;;3.67;3.47;;;;;;;9.56;78.69;62986.63;5088194;28;20219;-77
2023/03/26 07:28:55;;;;;;;4.43;4.03;;;;;;;9.56;80.20;62981.56;5091477;28;20204;-77
2023/03/26 07:31:33;;;;;;;4.55;4.18;;;;;;;9.74;77.25;63002.19;5088319;28;20191;-77
2023/03/26 07:34:10;;;;;;;3.95;3.70;;;;;;;9.83;77.06;63014.06;5087301;28;20236;-78
2023/03/26 07:36:45;;;;;;;5.05;4.65;;;;;;;10.06;76.59;63030.22;5087933;28;20223;-77
2023/03/26 07:39:29;;;;;;;4.13;3.83;;;;;;;10.13;72.23;63045.13;5089975;28;20264;-75
2023/03/26 07:42:03;;;;;;;4.60;4.22;;;;;;;10.22;71.86;63049.31;5087704;28;20300;-76
2023/03/26 07:44:41;;;;;;;6.05;4.60;;;;;;;10.33;73.75;63058.69;5087597;28;20204;-76
2023/03/26 07:47:21;;;;;;;4.45;4.10;;;;;;;10.32;69.85;63062.22;5090582;28;20263;-74
2023/03/26 07:49:50;;;;;;;5.65;4.07;;;;;;;10.37;69.18;63070.44;5089051;28;20196;-77
2023/03/26 07:52:18;;;;;;;5.28;4.88;;;;;;;10.60;69.06;63086.09;5087899;28;20228;-77
2023/03/26 07:54:45;;;;;;;7.25;3.65;;;;;;;10.82;65.93;63116.50;5090362;28;20196;-77
2023/03/26 07:57:19;;;;;;;3.38;3.17;;;;;;;10.83;65.42;63119.59;5087063;28;20224;-76
2023/03/26 07:59:52;;;;;;;4.75;4.35;;;;;;;10.86;64.25;63120.13;5087755;28;20224;-77
2023/03/26 08:02:46;;;;;;;2.95;2.75;;;;;;;10.94;63.01;63128.94;5087988;28;20242;-76
2023/03/26 08:05:21;;;;;;;4.85;4.43;;;;;;;10.96;61.70;63125.91;5088737;28;20188;-77
2023/03/26 08:08:01;;;;;;;3.20;3.00;;;;;;;11.02;58.52;63134.69;5088462;28;20220;-77
2023/03/26 08:10:38;;;;;;;3.30;3.08;;;;;;;11.01;57.52;63135.69;5088674;28;20208;-77
2023/03/26 08:13:17;;;;;;;3.30;3.00;;;;;;;11.18;56.08;63148.69;5087763;28;20240;-75
2023/03/26 08:15:52;;;;;;;2.38;2.22;;;;;;;11.21;55.42;63153.84;5087713;28;20375;-77
2023/03/26 08:18:27;;;;;;;2.25;2.15;;;;;;;11.22;55.24;63157.41;5088273;28;20283;-76
2023/03/26 08:20:59;;;;;;;2.25;2.13;;;;;;;11.26;55.25;63159.00;5087745;28;20220;-77
2023/03/26 08:23:31;;;;;;;2.58;2.47;;;;;;;11.45;53.87;63176.13;5087222;28;20221;-76
2023/03/26 08:26:05;;;;;;;3.83;2.88;;;;;;;11.53;54.12;63186.97;5090115;28;20185;-76
2023/03/26 08:28:44;;;;;;;2.90;2.40;;;;;;;11.56;54.06;63187.53;5087543;28;20188;-76
2023/03/26 08:31:14;;;;;;;2.83;2.72;;;;;;;11.75;52.70;63211.81;5088694;28;20259;-76
2023/03/26 08:33:42;;;;;;;2.72;2.63;;;;;;;11.76;52.29;63212.84;5087847;28;20547;-77
2023/03/26 08:36:11;;;;;;;3.10;2.90;;;;;;;11.66;52.55;63202.50;5087638;28;20231;-77
2023/03/26 08:38:38;;;;;;;2.15;2.03;;;;;;;11.52;52.50;63186.47;5087375;28;20490;-76
2023/03/26 08:41:56;;;;;;;2.42;2.25;;;;;;;11.65;51.76;63204.53;5086217;28;20203;-75
2023/03/26 08:45:09;;;;;;;2.30;2.20;;;;;;;11.91;53.74;63228.41;5027028;28;20198;-77
2023/03/26 08:48:14;;;;;;;2.90;2.80;;;;;;;12.00;53.74;63238.25;5024918;28;20285;-77
2023/03/26 08:51:35;;;;;;;2.97;2.78;;;;;;;12.12;53.34;63248.13;5086060;28;20196;-77
2023/03/26 08:54:56;;;;;;;2.05;1.80;;;;;;;11.97;51.89;63229.50;5061787;28;20236;-78
2023/03/26 08:57:49;;;;;;;2.28;2.10;;;;;;;11.93;50.44;63231.00;5086769;28;20220;-77
2023/03/26 09:00:48;;;;;;;2.67;2.47;;;;;;;12.05;51.38;63240.88;5087129;28;20184;-76
2023/03/26 09:03:28;;;;;;;2.63;2.53;;;;;;;12.15;50.51;63253.28;5087310;28;20312;-76
2023/03/26 09:06:25;;;;;;;2.28;2.17;;;;;;;12.18;51.47;63256.91;5085794;28;20189;-77
2023/03/26 09:09:16;;;;;;;1.73;1.63;;;;;;;12.33;49.13;63269.91;5051616;28;20212;-77
2023/03/26 09:12:16;;;;;;;1.40;1.10;;;;;;;12.01;49.04;63236.72;5087215;28;20216;-75
2023/03/26 09:15:24;;;;;;;1.77;1.63;;;;;;;11.79;51.07;63210.84;5084583;28;20510;-76
2023/03/26 09:18:35;;;;;;;2.33;2.10;;;;;;;11.89;50.60;63224.28;5069157;28;20217;-74
2023/03/26 09:21:39;;;;;;;1.75;1.50;;;;;;;11.82;51.84;63216.53;5086144;28;20227;-77
2023/03/26 09:24:30;;;;;;;1.95;1.85;;;;;;;12.22;51.25;63261.03;5065083;28;20200;-75
2023/03/26 09:27:09;;;;;;;2.30;2.10;;;;;;;12.28;51.03;63264.19;5065190;28;20279;-75
2023/03/26 09:30:03;;;;;;;2.08;1.98;;;;;;;12.22;50.30;63261.03;5065795;28;20201;-76
2023/03/26 09:33:06;;;;;;;1.60;1.60;;;;;;;12.39;49.61;63275.59;5065110;28;20327;-75
2023/03/26 09:35:52;;;;;;;1.80;1.70;;;;;;;12.27;49.28;63263.66;5049028;28;20497;-76
2023/03/26 09:38:42;;;;;;;1.73;1.63;;;;;;;12.46;48.36;63285.94;5076482;28;20243;-76
2023/03/26 09:41:15;;;;;;;1.90;1.80;;;;;;;12.52;48.48;63286.53;5086680;28;20189;-76
2023/03/26 09:44:29;;;;;;;1.30;1.20;;;;;;;12.48;46.78;63282.91;5083100;28;20211;-75
2023/03/26 09:47:21;;;;;;;1.30;1.30;;;;;;;12.47;47.07;63283.91;5066090;28;20299;-75
2023/03/26 09:49:54;;;;;;;1.25;1.17;;;;;;;12.50;46.23;63287.53;5064839;28;20378;-77
2023/03/26 09:52:55;;;;;;;1.83;1.73;;;;;;;12.65;46.91;63305.09;5065674;28;20248;-76
2023/03/26 09:55:39;;;;;;;1.60;1.50;;;;;;;12.90;45.08;63325.41;5064883;28;20189;-77
2023/03/26 09:58:33;;;;;;;1.10;1.10;;;;;;;12.98;45.04;63336.28;5074413;28;20239;-76
2023/03/26 10:01:09;;;;;;;1.45;1.38;;;;;;;13.21;44.71;63357.56;5086943;28;20224;-77
2023/03/26 10:03:46;;;;;;;1.77;1.30;;;;;;;13.40;44.58;63382.94;5085043;28;20196;-77
2023/03/26 10:06:36;;;;;;;1.20;1.02;;;;;;;13.24;44.60;63366.31;5084937;28;20188;-77
2023/03/26 10:09:26;;;;;;;0.98;0.75;;;;;;;13.28;43.81;63372.50;5085041;28;20255;-75
2023/03/26 10:12:06;;;;;;;1.15;1.15;;;;;;;13.23;43.88;63362.75;5084470;28;20217;-77
2023/03/26 10:14:42;;;;;;;1.00;1.00;;;;;;;12.91;44.38;63329.00;5085100;28;20228;-75
2023/03/26 10:17:27;;;;;;;0.88;0.88;;;;;;;12.97;45.68;63335.75;5087299;28;20216;-75
2023/03/26 10:20:08;;;;;;;1.73;1.30;;;;;;;13.12;44.86;63351.31;5084364;28;20207;-76
2023/03/26 10:22:48;;;;;;;0.95;0.90;;;;;;;13.31;42.43;63371.03;5084058;28;20228;-76
2023/03/26 10:25:42;;;;;;;0.80;0.80;;;;;;;13.12;41.58;63353.34;5084533;28;20196;-74
2023/03/26 10:28:21;;;;;;;0.75;0.75;;;;;;;12.84;42.35;63324.81;5084197;28;20249;-75
2023/03/26 10:31:07;;;;;;;0.80;0.80;;;;;;;12.82;40.35;63319.66;5083676;28;20192;-75
2023/03/26 10:33:51;;;;;;;0.70;0.70;;;;;;;12.89;39.34;63332.03;5085108;28;20244;-76
2023/03/26 10:36:28;;;;;;;1.70;0.90;;;;;;;13.17;40.20;63356.50;5084203;28;20216;-77
2023/03/26 10:39:22;;;;;;;1.15;0.68;;;;;;;13.17;39.95;63353.41;5085502;28;20410;-75
2023/03/26 10:41:59;;;;;;;0.38;0.38;;;;;;;13.20;39.80;63356.56;5083897;28;20242;-74
2023/03/26 10:44:53;;;;;;;0.43;0.43;;;;;;;12.98;39.24;63341.38;5085405;28;20196;-75
2023/03/26 10:47:44;;;;;;;0.68;0.68;;;;;;;13.33;38.93;63378.22;5084442;28;20259;-76
2023/03/26 10:50:29;;;;;;;0.70;0.70;;;;;;;13.68;36.99;63414.53;5083751;28;20199;-77
2023/03/26 10:53:01;;;;;;;0.60;0.60;;;;;;;13.76;36.27;63414.66;5089662;28;20253;-75
2023/03/26 10:55:34;;;;;;;0.88;0.40;;;;;;;13.82;37.34;63423.94;5089009;28;20489;-76
2023/03/26 10:58:13;;;;;;;0.75;0.75;;;;;;;13.89;36.60;63430.72;5087244;28;20228;-77
2023/03/26 11:00:44;;;;;;;0.30;0.30;;;;;;;13.87;36.23;63429.13;5089039;28;20193;-75
2023/03/26 11:03:40;;;;;;;0.40;0.40;;;;;;;13.85;37.34;63427.06;5088970;28;20227;-76
2023/03/26 11:06:19;;;;;;;0.35;0.35;;;;;;;13.78;37.45;63422.38;5081287;28;20204;-77
2023/03/26 11:08:55;;;;;;;0.30;0.30;;;;;;;13.83;34.94;63427.03;5087365;28;20205;-76
2023/03/26 11:11:29;;;;;;;2.78;0.43;;;;;;;13.98;34.08;63442.59;5089063;28;20567;-76
2023/03/26 11:14:03;;;;;;;0.60;0.60;;;;;;;14.02;36.14;63443.69;5087271;28;20246;-77
2023/03/26 11:16:46;;;;;;;0.32;0.25;;;;;;;14.16;33.94;63460.78;5090337;28;20216;-75
2023/03/26 11:19:21;;;;;;;0.32;0.32;;;;;;;14.10;33.19;63449.44;5087798;28;20242;-77
2023/03/26 11:21:57;;;;;;;0.35;0.30;;;;;;;14.11;33.15;63450.97;5087670;28;20212;-75
2023/03/26 11:24:45;;;;;;;0.43;0.22;;;;;;;14.14;32.24;63456.13;5087198;28;20200;-74
2023/03/26 11:27:17;;;;;;;0.40;0.40;;;;;;;14.24;32.16;63469.06;5068827;28;20276;-75
2023/03/26 11:29:54;;;;;;;1.02;0.55;;;;;;;14.23;31.22;63466.00;5069840;28;20203;-76
2023/03/26 11:32:24;;;;;;;0.35;0.35;;;;;;;14.29;32.36;63474.31;5068230;28;20217;-75
2023/03/26 11:34:59;;;;;;;0.50;0.50;;;;;;;14.41;33.33;63489.31;5067255;28;20231;-76
2023/03/26 11:37:33;;;;;;;1.42;0.30;;;;;;;14.27;33.60;63470.16;5067159;28;20216;-77
2023/03/26 11:40:04;;;;;;;1.40;0.73;;;;;;;14.31;33.58;63474.31;5066974;28;20201;-77
2023/03/26 11:42:33;;;;;;;0.65;0.65;;;;;;;14.32;35.16;63474.84;5067098;28;20224;-74
2023/03/26 11:45:04;;;;;;;1.60;0.47;;;;;;;14.46;33.76;63489.38;5067683;28;20197;-77
2023/03/26 11:47:36;;;;;;;0.50;0.50;;;;;;;14.38;34.06;63483.63;5068304;28;20278;-78
2023/03/26 11:50:05;;;;;;;1.08;0.68;;;;;;;14.55;33.51;63499.25;5071389;28;20197;-75
2023/03/26 11:52:34;;;;;;;1.92;0.55;;;;;;;14.50;34.36;63494.06;5067030;28;20244;-75
2023/03/26 11:55:01;;;;;;;0.65;0.65;;;;;;;14.63;34.09;63507.56;5067423;28;20487;-77
2023/03/26 11:57:32;;;;;;;1.05;0.52;;;;;;;14.76;33.74;63520.53;5068976;28;20213;-77
2023/03/26 12:00:09;;;;;;;1.55;0.50;;;;;;;14.81;34.34;63525.72;5087250;28;20226;-76
2023/03/26 12:02:39;;;;;;;0.50;0.50;;;;;;;14.83;34.13;63532.94;5086554;28;20283;-75
2023/03/26 12:05:19;;;;;;;0.60;0.60;;;;;;;14.99;33.86;63544.97;5089027;28;20520;-77
2023/03/26 12:07:51;;;;;;;0.85;0.85;;;;;;;14.79;34.73;63523.66;5086021;28;20227;-77